»·PEaware :: SWA717 KSLC-KLAS

SWA717 :: KSLC-KLAS

FLIGHT INFORMATION

Flight Status: Arrived
Operator:
Southwest Airlines
More flights by this operator :: More flights under this callsign
Pilot: Ty S. (2873)
Aircraft: BOEING 737-800
(B738)
More flights by this aircraft type
Origin: KSLC Salt Lake City Intl
United States
Destination: KLAS McCarran Intl
United States
More flights between these airports :: More routes between these airports
Route: ZIONZ1 EHK KSINO SITEE4
File this flight plan on PilotEdge
Remarks: RMK / SIMBRIEF
Altitude:
(Current/Filed)
36,000ft
Speed:
(Current/Filed)
463kts
Departed: 12-Jun-20 06:08 PM
Arrived: 12-Jun-20 07:11 PM
Distance/Time
Traveled:
319nm/1:02
Distance/Time
To Go:
Arrived

Flight Plot

Page will automatically refresh every two minutes.

Flight plan parsing failed; only flown route is shown


Map Options




Map Legend


Flown Route
Filed Route
Departure Airport
Arrival Airport
Navaid (VOR, NDB)
Fix

Horizontal Profiles

Position Reports

Time Latitude Longitude Heading Altitude Ground
Speed
12-Jun-20 17:31 40.789203 -111.978808 171 4237ft 0kts
12-Jun-20 17:32 40.789203 -111.978808 171 4237ft 0kts
12-Jun-20 17:33 40.789203 -111.978808 171 4237ft 0kts
12-Jun-20 17:34 40.789203 -111.978808 171 4237ft 0kts
12-Jun-20 17:35 40.789203 -111.978808 171 4237ft 0kts
12-Jun-20 17:36 40.789203 -111.978808 171 4237ft 0kts
12-Jun-20 17:37 40.789203 -111.978808 171 4237ft 0kts
12-Jun-20 17:38 40.789203 -111.978808 171 4237ft 0kts
12-Jun-20 17:39 40.789203 -111.978808 171 4237ft 0kts
12-Jun-20 17:40 40.789203 -111.978808 171 4237ft 0kts
12-Jun-20 17:41 40.789203 -111.978808 171 4237ft 0kts
12-Jun-20 17:42 40.789203 -111.978808 171 4237ft 0kts
12-Jun-20 17:43 40.789203 -111.978808 171 4237ft 0kts
12-Jun-20 17:44 40.789203 -111.978808 171 4237ft 0kts
12-Jun-20 17:45 40.789203 -111.978808 171 4237ft 0kts
12-Jun-20 17:46 40.789203 -111.978808 171 4237ft 0kts
12-Jun-20 17:47 40.789203 -111.978808 171 4237ft 0kts
12-Jun-20 17:48 40.789203 -111.978808 171 4237ft 0kts
12-Jun-20 17:49 40.789203 -111.978808 171 4237ft 0kts
12-Jun-20 17:50 40.789203 -111.978808 171 4237ft 0kts
12-Jun-20 17:51 40.789203 -111.978808 171 4237ft 0kts
12-Jun-20 17:52 40.789203 -111.978808 171 4237ft 0kts
12-Jun-20 17:53 40.789203 -111.978808 171 4237ft 0kts
12-Jun-20 17:54 40.789303 -111.978828 171 4237ft 2kts
12-Jun-20 17:55 40.789652 -111.979148 77 4237ft 1kts
12-Jun-20 17:56 40.789649 -111.979164 78 4237ft 0kts
12-Jun-20 17:57 40.789649 -111.979164 78 4237ft 0kts
12-Jun-20 17:58 40.789649 -111.979164 78 4237ft 0kts
12-Jun-20 17:59 40.789723 -111.978103 85 4237ft 4kts
12-Jun-20 18:00 40.792303 -111.977357 355 4237ft 20kts
12-Jun-20 18:01 40.798060 -111.978023 355 4237ft 19kts
12-Jun-20 18:02 40.803141 -111.978320 9 4237ft 16kts
12-Jun-20 18:03 40.805810 -111.978488 355 4237ft 2kts
12-Jun-20 18:04 40.807204 -111.978404 40 4237ft 3kts
12-Jun-20 18:05 40.806724 -111.976860 171 4237ft 0kts
12-Jun-20 18:06 40.806724 -111.976860 171 4237ft 0kts
12-Jun-20 18:07 40.783634 -111.974270 172 4327ft 178kts
12-Jun-20 18:08 40.734168 -111.965737 174 6261ft 210kts
12-Jun-20 18:09 40.669001 -111.960743 176 8340ft 252kts
12-Jun-20 18:10 40.596974 -111.957807 178 10726ft 281kts
12-Jun-20 18:11 40.508763 -111.954034 178 12218ft 336kts
12-Jun-20 18:12 40.414120 -111.948913 177 14689ft 347kts
12-Jun-20 18:13 40.316664 -111.942016 178 16992ft 357kts
12-Jun-20 18:14 40.216351 -111.946543 187 19107ft 366kts
12-Jun-20 18:15 40.114515 -111.962811 187 21087ft 375kts
12-Jun-20 18:16 40.009770 -111.978169 187 22901ft 384kts
12-Jun-20 18:17 39.902497 -111.993852 188 24596ft 392kts
12-Jun-20 18:18 39.796178 -112.009366 188 26172ft 400kts
12-Jun-20 18:19 39.685816 -112.025405 188 28095ft 397kts
12-Jun-20 18:20 39.577490 -112.041101 189 30043ft 391kts
12-Jun-20 18:21 39.470110 -112.056619 189 31788ft 385kts
12-Jun-20 18:22 39.364575 -112.071581 189 33400ft 380kts
12-Jun-20 18:23 39.259727 -112.086425 190 33974ft 376kts
12-Jun-20 18:24 39.157086 -112.103955 198 33982ft 371kts
12-Jun-20 18:25 39.063679 -112.157674 209 33977ft 369kts
12-Jun-20 18:26 38.973636 -112.221720 211 33978ft 371kts
12-Jun-20 18:27 38.887715 -112.283981 211 33980ft 372kts
12-Jun-20 18:28 38.798536 -112.348659 211 33982ft 375kts
12-Jun-20 18:29 38.707645 -112.414393 211 33992ft 373kts
12-Jun-20 18:31 38.617041 -112.479785 211 34000ft 375kts
12-Jun-20 18:32 38.526839 -112.544637 211 34006ft 371kts
12-Jun-20 18:33 38.436619 -112.609349 211 34006ft 374kts
12-Jun-20 18:34 38.352423 -112.669548 210 34007ft 371kts
12-Jun-20 18:35 38.262095 -112.733894 210 34007ft 373kts
12-Jun-20 18:36 38.171813 -112.798092 210 34011ft 372kts
12-Jun-20 18:37 38.080270 -112.863020 210 34005ft 380kts
12-Jun-20 18:38 37.989506 -112.927188 210 34044ft 369kts
12-Jun-20 18:39 37.900735 -112.989732 210 34081ft 362kts
12-Jun-20 18:40 37.817167 -113.048457 210 34095ft 354kts
12-Jun-20 18:41 37.733826 -113.114290 214 34095ft 354kts
12-Jun-20 18:42 37.651860 -113.184021 214 34091ft 355kts
12-Jun-20 18:43 37.569944 -113.253756 214 34090ft 355kts
12-Jun-20 18:44 37.488128 -113.323262 214 34071ft 356kts
12-Jun-20 18:44 37.419685 -113.381270 214 34010ft 355kts
12-Jun-20 18:46 37.324103 -113.462037 214 33921ft 355kts
12-Jun-20 18:47 37.242209 -113.531023 214 33900ft 356kts
12-Jun-20 18:47 37.173435 -113.588864 214 33899ft 357kts
12-Jun-20 18:49 37.082175 -113.665350 214 33904ft 359kts
12-Jun-20 18:50 36.997307 -113.736181 214 31789ft 361kts
12-Jun-20 18:50 36.927253 -113.794565 213 29357ft 372kts
12-Jun-20 18:52 36.829006 -113.876326 212 26430ft 375kts
12-Jun-20 18:53 36.743005 -113.947650 212 24333ft 367kts
12-Jun-20 18:53 36.673331 -114.005266 212 22258ft 359kts
12-Jun-20 18:54 36.593340 -114.077206 220 19841ft 352kts
12-Jun-20 18:55 36.532589 -114.171642 231 17479ft 349kts
12-Jun-20 18:56 36.480155 -114.271709 233 15181ft 342kts
12-Jun-20 18:57 36.429382 -114.370677 233 12931ft 336kts
12-Jun-20 18:58 36.379478 -114.467719 233 11739ft 331kts
12-Jun-20 18:59 36.331272 -114.561203 233 10981ft 301kts
12-Jun-20 19:00 36.288153 -114.644731 233 10045ft 281kts
12-Jun-20 19:01 36.249894 -114.721488 247 9052ft 269kts
12-Jun-20 19:02 36.243575 -114.808897 261 8702ft 241kts
12-Jun-20 19:03 36.240409 -114.891119 261 7780ft 236kts
12-Jun-20 19:04 36.237315 -114.971065 261 6376ft 236kts
12-Jun-20 19:05 36.229962 -115.043313 232 5563ft 196kts
12-Jun-20 19:06 36.191036 -115.085516 213 4435ft 176kts
12-Jun-20 19:07 36.156620 -115.114562 211 3611ft 145kts
12-Jun-20 19:08 36.122617 -115.139833 201 2845ft 139kts
12-Jun-20 19:09 36.088651 -115.159255 204 2192ft 96kts
12-Jun-20 19:10 36.081603 -115.161084 91 2191ft 11kts
12-Jun-20 19:11 36.081627 -115.156759 89 2191ft 15kts
12-Jun-20 19:12 36.081264 -115.150697 98 2191ft 15kts
12-Jun-20 19:13 36.081371 -115.147855 64 2191ft 0kts

Navigation Log

Ident Type
Flight plan parsing failed, navigation log unavailable